Time;durP1;ratioP1;P1;durP2;ratioP2;P2;SDS_P1;SDS_P2;PMS_P1;PMS_P2;Temp;Humidity;BMP_temperature;BMP_pressure;BME280_temperature;BME280_humidity;BME280_pressure;Samples;Min_cycle;Max_cycle;Signal;HPM_P1;HPM_P2
2021/08/15 00:02:15;;;;;;;14.25;5.10;;;16.10;99.90;;;;;;5040097;28;20049;-85
2021/08/15 00:04:40;;;;;;;14.10;6.22;;;16.10;99.90;;;;;;5058302;28;20045;-85
2021/08/15 00:07:06;;;;;;;17.30;5.03;;;16.10;99.90;;;;;;5029526;28;20041;-84
2021/08/15 00:09:32;;;;;;;14.93;5.78;;;16.10;99.90;;;;;;5024677;28;20136;-85
2021/08/15 00:11:58;;;;;;;14.20;5.63;;;16.10;99.90;;;;;;5053285;28;20045;-84
2021/08/15 00:14:24;;;;;;;20.60;6.20;;;16.10;99.90;;;;;;5061707;28;20534;-84
2021/08/15 00:16:50;;;;;;;16.02;5.47;;;16.20;99.90;;;;;;5044498;28;20073;-84
2021/08/15 00:19:16;;;;;;;15.77;5.40;;;16.20;99.90;;;;;;5031292;28;20068;-84
2021/08/15 00:21:42;;;;;;;17.58;5.43;;;16.20;99.90;;;;;;5031023;28;20045;-85
2021/08/15 00:24:08;;;;;;;16.80;6.22;;;16.20;99.90;;;;;;5029262;28;20525;-84
2021/08/15 00:26:35;;;;;;;14.52;5.55;;;16.20;99.90;;;;;;5028140;28;20029;-85
2021/08/15 00:29:02;;;;;;;16.55;6.28;;;16.20;99.90;;;;;;5058967;28;20254;-84
2021/08/15 00:31:29;;;;;;;13.80;5.47;;;16.20;99.90;;;;;;5029481;28;20466;-84
2021/08/15 00:33:55;;;;;;;16.40;6.43;;;16.20;99.90;;;;;;5060019;28;20481;-84
2021/08/15 00:36:21;;;;;;;14.07;6.68;;;16.20;99.90;;;;;;5015600;28;20042;-85
2021/08/15 00:38:47;;;;;;;18.95;6.28;;;16.20;99.90;;;;;;5028853;28;20497;-84
2021/08/15 00:41:13;;;;;;;20.83;7.57;;;16.20;99.90;;;;;;5028214;28;20038;-84
2021/08/15 00:43:38;;;;;;;20.15;7.32;;;16.20;99.90;;;;;;5011663;28;20167;-84
2021/08/15 00:46:08;;;;;;;16.20;7.25;;;16.20;99.90;;;;;;5024190;28;20609;-85
2021/08/15 00:48:34;;;;;;;;;;;16.20;99.90;;;;;;5022318;28;20119;-85
2021/08/15 00:51:01;;;;;;;17.58;6.28;;;16.20;99.90;;;;;;5044087;28;20281;-84
2021/08/15 00:53:32;;;;;;;21.58;7.30;;;16.30;99.90;;;;;;5060877;28;20465;-84
2021/08/15 00:56:04;;;;;;;14.52;6.47;;;16.30;99.90;;;;;;5028593;28;20041;-84
2021/08/15 00:58:35;;;;;;;12.63;6.43;;;16.40;99.90;;;;;;5027701;28;20053;-85
2021/08/15 01:01:05;;;;;;;18.45;7.07;;;16.40;99.90;;;;;;5041050;28;20053;-85
2021/08/15 01:03:35;;;;;;;22.70;7.38;;;16.30;99.90;;;;;;5024356;28;20440;-85
2021/08/15 01:06:08;;;;;;;14.82;7.18;;;16.40;99.90;;;;;;5044021;28;20061;-84
2021/08/15 01:08:36;;;;;;;12.95;5.97;;;16.40;99.90;;;;;;5028646;28;20037;-85
2021/08/15 01:11:04;;;;;;;13.65;6.47;;;16.40;99.90;;;;;;5027870;28;20385;-85
2021/08/15 01:13:31;;;;;;;17.73;6.03;;;16.40;99.90;;;;;;5029264;28;20046;-85
2021/08/15 01:15:57;;;;;;;16.42;6.78;;;16.40;99.90;;;;;;5026779;28;20042;-85
2021/08/15 01:18:25;;;;;;;16.00;6.20;;;16.40;99.90;;;;;;5060957;28;20523;-85
2021/08/15 01:21:10;;;;;;;18.33;6.93;;;16.40;99.90;;;;;;5026451;28;20037;-85
2021/08/15 01:23:39;;;;;;;15.68;6.88;;;16.40;99.90;;;;;;5019411;28;20064;-84
2021/08/15 01:26:06;;;;;;;15.50;5.90;;;16.50;99.90;;;;;;5028421;28;20594;-84
2021/08/15 01:28:33;;;;;;;15.30;5.82;;;16.50;99.90;;;;;;5027746;28;20298;-84
2021/08/15 01:31:00;;;;;;;12.27;6.25;;;16.60;99.90;;;;;;5026860;28;20091;-84
2021/08/15 01:33:28;;;;;;;12.65;6.15;;;16.60;99.90;;;;;;5060770;28;20053;-84
2021/08/15 01:35:56;;;;;;;9.95;6.00;;;16.70;99.90;;;;;;5043490;28;20114;-84
2021/08/15 01:38:24;;;;;;;9.90;5.45;;;16.70;99.90;;;;;;5028319;28;20045;-84
2021/08/15 01:40:51;;;;;;;13.25;5.18;;;16.70;99.90;;;;;;5059914;28;20489;-86
2021/08/15 01:43:17;;;;;;;14.40;5.50;;;16.70;99.90;;;;;;5028643;28;20040;-84
2021/08/15 01:45:43;;;;;;;12.57;5.72;;;16.70;99.90;;;;;;5029180;28;20034;-84
2021/08/15 01:48:09;;;;;;;8.50;5.50;;;16.70;99.90;;;;;;5044362;28;20056;-84
2021/08/15 01:50:35;;;;;;;11.32;5.80;;;16.70;99.90;;;;;;5052551;28;20113;-84
2021/08/15 01:53:01;;;;;;;8.90;5.15;;;16.70;99.90;;;;;;5033397;28;20041;-84
2021/08/15 01:55:27;;;;;;;13.63;5.70;;;16.80;99.90;;;;;;5067902;28;20094;-84
2021/08/15 01:57:53;;;;;;;11.75;5.55;;;16.80;99.90;;;;;;5051625;28;20906;-85
2021/08/15 02:00:19;;;;;;;9.23;5.07;;;16.80;99.90;;;;;;5067336;28;20499;-84
2021/08/15 02:02:45;;;;;;;9.93;5.10;;;16.80;99.90;;;;;;5067714;28;20560;-86
2021/08/15 02:05:18;;;;;;;12.32;5.70;;;16.80;99.90;;;;;;5050273;28;20132;-84
2021/08/15 02:07:45;;;;;;;9.85;4.95;;;16.90;99.90;;;;;;5052075;28;20084;-84
2021/08/15 02:10:13;;;;;;;13.05;5.55;;;16.80;99.90;;;;;;5047701;28;20044;-84
2021/08/15 02:12:39;;;;;;;12.85;5.65;;;16.90;99.90;;;;;;5051784;28;20053;-84
2021/08/15 02:15:06;;;;;;;8.88;5.45;;;16.90;99.90;;;;;;5033414;28;20088;-85
2021/08/15 02:17:31;;;;;;;12.90;5.35;;;16.90;99.90;;;;;;5067130;28;20495;-85
2021/08/15 02:19:57;;;;;;;12.82;5.50;;;16.90;99.90;;;;;;5065949;28;20049;-85
2021/08/15 02:22:23;;;;;;;11.40;5.95;;;16.80;99.90;;;;;;5051981;28;20106;-85
2021/08/15 02:24:49;;;;;;;11.07;5.22;;;16.90;99.90;;;;;;5051927;28;20052;-85
2021/08/15 02:27:14;;;;;;;9.13;5.25;;;16.80;99.90;;;;;;5051245;28;20135;-85
2021/08/15 02:29:41;;;;;;;10.57;5.07;;;16.80;99.90;;;;;;5066837;28;20037;-84
2021/08/15 02:32:07;;;;;;;11.15;5.63;;;16.80;99.90;;;;;;5050829;28;20051;-84
2021/08/15 02:34:32;;;;;;;16.40;5.47;;;16.90;99.90;;;;;;5040992;28;20072;-85
2021/08/15 02:36:58;;;;;;;10.77;5.43;;;16.90;99.90;;;;;;5049779;28;20044;-85
2021/08/15 02:39:24;;;;;;;17.60;5.78;;;16.80;99.90;;;;;;5041500;28;20457;-85
2021/08/15 02:41:50;;;;;;;12.90;5.75;;;16.80;99.90;;;;;;5050536;28;20057;-84
2021/08/15 02:44:15;;;;;;;14.13;5.75;;;16.80;99.90;;;;;;5066164;28;20049;-85
2021/08/15 02:46:41;;;;;;;12.38;5.85;;;16.80;99.90;;;;;;5066895;28;20041;-85
2021/08/15 02:49:07;;;;;;;10.23;5.50;;;16.80;99.90;;;;;;5049401;28;20492;-85
2021/08/15 02:51:33;;;;;;;20.92;6.60;;;16.70;99.90;;;;;;5051236;28;20041;-85
2021/08/15 02:53:58;;;;;;;12.90;5.97;;;16.80;99.90;;;;;;5050361;28;20378;-86
2021/08/15 02:56:24;;;;;;;11.70;5.95;;;16.80;99.90;;;;;;5049643;28;20127;-85
2021/08/15 02:58:50;;;;;;;15.95;6.28;;;16.80;99.90;;;;;;5050253;28;20049;-86
2021/08/15 03:01:16;;;;;;;17.20;6.03;;;16.80;99.90;;;;;;5064480;28;20106;-85
2021/08/15 03:03:42;;;;;;;13.23;6.22;;;16.80;99.90;;;;;;5050938;28;20112;-84
2021/08/15 03:06:08;;;;;;;10.25;6.25;;;16.80;99.90;;;;;;5065814;28;20037;-84
2021/08/15 03:08:34;;;;;;;9.20;5.60;;;16.80;99.90;;;;;;5046703;28;20041;-85
2021/08/15 03:10:59;;;;;;;10.57;5.47;;;16.80;99.90;;;;;;5045426;28;20041;-84
2021/08/15 03:13:25;;;;;;;9.90;5.75;;;16.80;99.90;;;;;;5050932;28;20048;-84
2021/08/15 03:15:51;;;;;;;10.15;5.75;;;16.80;99.90;;;;;;5065782;28;20090;-84
2021/08/15 03:18:18;;;;;;;11.13;5.82;;;16.70;99.90;;;;;;5048578;28;20037;-85
2021/08/15 03:20:45;;;;;;;14.80;6.07;;;16.70;99.90;;;;;;5049607;28;20045;-84
2021/08/15 03:23:11;;;;;;;12.43;6.15;;;16.70;99.90;;;;;;5050280;28;20075;-83
2021/08/15 03:25:37;;;;;;;14.38;6.70;;;16.70;99.90;;;;;;5065862;28;20061;-85
2021/08/15 03:28:07;;;;;;;14.75;6.00;;;16.70;99.90;;;;;;5031316;28;20037;-84
2021/08/15 03:30:35;;;;;;;16.27;5.97;;;16.70;99.90;;;;;;5050754;28;20041;-84
2021/08/15 03:33:01;;;;;;;15.35;7.05;;;16.70;99.90;;;;;;5048268;28;20049;-86
2021/08/15 03:35:27;;;;;;;15.05;5.95;;;16.70;99.90;;;;;;5066093;28;20045;-85
2021/08/15 03:37:52;;;;;;;11.50;5.72;;;16.60;99.90;;;;;;5065448;28;20122;-84
2021/08/15 03:40:19;;;;;;;18.27;6.43;;;16.60;99.90;;;;;;5064859;28;20045;-84
2021/08/15 03:42:44;;;;;;;12.18;5.93;;;16.60;99.90;;;;;;5039144;28;20045;-84
2021/08/15 03:45:10;;;;;;;14.32;7.07;;;16.60;99.90;;;;;;5031468;28;20051;-84
2021/08/15 03:47:37;;;;;;;14.68;7.05;;;16.50;99.90;;;;;;5032251;28;20091;-85
2021/08/15 03:50:08;;;;;;;9.63;6.32;;;16.50;99.90;;;;;;5049401;28;20041;-85
2021/08/15 03:52:41;;;;;;;11.98;5.65;;;16.40;99.90;;;;;;5050183;28;20652;-85
2021/08/15 03:55:11;;;;;;;12.73;6.90;;;16.40;99.90;;;;;;5049435;28;20067;-85
2021/08/15 03:57:38;;;;;;;17.30;6.10;;;16.50;99.90;;;;;;5049789;28;20301;-85
2021/08/15 04:00:05;;;;;;;8.43;5.50;;;16.40;99.90;;;;;;5047931;28;20393;-86
2021/08/15 04:02:31;;;;;;;13.38;6.50;;;16.50;99.90;;;;;;5065522;28;20044;-85
2021/08/15 04:04:56;;;;;;;12.07;6.55;;;16.50;99.90;;;;;;5064979;28;20048;-85
2021/08/15 04:07:22;;;;;;;11.90;5.90;;;16.50;99.90;;;;;;5049127;28;20039;-85
2021/08/15 04:09:48;;;;;;;16.63;6.97;;;16.50;99.90;;;;;;5056087;28;20099;-84
2021/08/15 04:12:14;;;;;;;15.43;6.30;;;16.50;99.90;;;;;;5058653;28;20048;-84
2021/08/15 04:14:39;;;;;;;12.82;6.00;;;16.50;99.90;;;;;;5048529;28;20043;-84
2021/08/15 04:17:05;;;;;;;14.13;6.75;;;16.50;99.90;;;;;;5049084;28;20053;-85
2021/08/15 04:19:31;;;;;;;14.27;6.80;;;16.50;99.90;;;;;;5064932;28;20489;-84
2021/08/15 04:21:57;;;;;;;13.02;6.00;;;16.50;99.90;;;;;;5031824;28;20094;-84
2021/08/15 04:24:23;;;;;;;13.35;6.78;;;16.50;99.90;;;;;;5048604;28;20037;-84
2021/08/15 04:26:49;;;;;;;14.40;6.47;;;16.60;99.90;;;;;;5048567;28;20045;-84
2021/08/15 04:29:14;;;;;;;12.10;6.85;;;16.50;99.90;;;;;;5047283;28;20037;-84
2021/08/15 04:31:41;;;;;;;12.65;6.80;;;16.50;99.90;;;;;;5064982;28;20120;-84
2021/08/15 04:34:07;;;;;;;11.73;6.35;;;16.50;99.90;;;;;;5063678;28;20053;-84
2021/08/15 04:36:34;;;;;;;15.75;6.75;;;16.50;99.90;;;;;;5031688;28;20041;-84
2021/08/15 04:39:00;;;;;;;14.07;6.38;;;16.60;99.90;;;;;;5064858;28;20048;-83
2021/08/15 04:41:26;;;;;;;9.45;5.40;;;16.60;99.90;;;;;;5064130;28;20049;-84
2021/08/15 04:43:52;;;;;;;10.63;6.10;;;16.60;99.90;;;;;;5064548;28;20048;-84
2021/08/15 04:46:17;;;;;;;12.73;5.82;;;16.60;99.90;;;;;;5046959;28;20537;-86
2021/08/15 04:48:43;;;;;;;12.50;6.55;;;16.70;99.90;;;;;;5064281;28;20044;-85
2021/08/15 04:51:09;;;;;;;9.43;5.50;;;16.70;99.90;;;;;;5046978;28;20053;-85
2021/08/15 04:53:35;;;;;;;11.27;6.38;;;16.70;99.90;;;;;;5064516;28;20032;-84
2021/08/15 04:56:03;;;;;;;13.57;6.63;;;16.70;99.90;;;;;;5064769;28;20044;-84
2021/08/15 04:58:30;;;;;;;9.55;5.97;;;16.70;99.90;;;;;;5063980;28;20037;-84
2021/08/15 05:00:56;;;;;;;19.58;6.15;;;16.70;99.90;;;;;;5064720;28;20124;-85
2021/08/15 05:03:22;;;;;;;15.73;6.65;;;16.70;99.90;;;;;;5048107;28;20859;-86
2021/08/15 05:05:55;;;;;;;15.18;6.55;;;16.70;99.90;;;;;;5063927;28;20410;-85
2021/08/15 05:08:21;;;;;;;15.27;6.30;;;16.70;99.90;;;;;;5063483;28;20044;-84
2021/08/15 05:10:47;;;;;;;10.07;6.18;;;16.70;99.90;;;;;;5050505;28;20482;-84
2021/08/15 05:13:13;;;;;;;17.10;6.63;;;16.70;99.90;;;;;;5046735;28;20047;-84
2021/08/15 05:15:39;;;;;;;11.43;6.22;;;16.70;99.90;;;;;;5049080;28;20094;-84
2021/08/15 05:18:07;;;;;;;12.25;5.70;;;16.70;99.90;;;;;;5030964;28;20041;-85
2021/08/15 05:20:33;;;;;;;12.63;5.47;;;16.70;99.90;;;;;;5050907;28;20083;-84
2021/08/15 05:22:59;;;;;;;14.82;6.68;;;16.70;99.90;;;;;;5052548;28;20086;-84
2021/08/15 05:25:25;;;;;;;10.20;5.55;;;16.70;99.90;;;;;;5067835;28;20913;-84
2021/08/15 05:27:51;;;;;;;15.82;6.35;;;16.70;99.90;;;;;;5052731;28;20037;-85
2021/08/15 05:30:17;;;;;;;11.20;6.18;;;16.80;99.90;;;;;;5034594;28;20045;-85
2021/08/15 05:32:43;;;;;;;13.88;6.60;;;16.70;99.90;;;;;;5067569;28;20063;-85
2021/08/15 05:35:10;;;;;;;9.52;5.68;;;16.70;99.90;;;;;;5052325;28;20536;-86
2021/08/15 05:37:39;;;;;;;12.88;6.22;;;16.70;99.90;;;;;;5068221;28;20048;-85
2021/08/15 05:40:06;;;;;;;11.90;6.18;;;16.70;99.90;;;;;;5052709;28;20037;-85
2021/08/15 05:42:32;;;;;;;12.52;6.70;;;16.80;99.90;;;;;;5067571;28;20041;-85
2021/08/15 05:44:58;;;;;;;8.90;5.75;;;16.80;99.90;;;;;;5052065;28;20045;-85
2021/08/15 05:47:24;;;;;;;10.02;5.75;;;16.90;99.90;;;;;;5051713;28;20056;-86
2021/08/15 05:49:50;;;;;;;11.85;5.90;;;17.00;99.90;;;;;;5052658;28;20045;-85
2021/08/15 05:52:15;;;;;;;11.45;5.90;;;17.10;99.90;;;;;;5050654;28;20041;-85
2021/08/15 05:54:41;;;;;;;8.93;5.78;;;17.20;99.90;;;;;;5034503;28;20048;-86
2021/08/15 05:57:07;;;;;;;10.38;5.93;;;17.40;99.90;;;;;;5020681;28;20045;-86
2021/08/15 05:59:34;;;;;;;9.50;5.82;;;17.50;99.90;;;;;;5067178;28;20510;-84
2021/08/15 06:02:00;;;;;;;10.57;5.53;;;17.60;99.90;;;;;;5052016;28;20040;-84
2021/08/15 06:04:26;;;;;;;15.50;5.63;;;17.70;99.90;;;;;;5066586;28;20045;-84
2021/08/15 06:06:52;;;;;;;10.20;6.10;;;17.70;99.90;;;;;;5051044;28;20045;-84
2021/08/15 06:09:18;;;;;;;10.90;5.57;;;17.80;99.90;;;;;;5061848;28;20095;-84
2021/08/15 06:11:46;;;;;;;14.05;6.53;;;17.70;99.90;;;;;;5042607;28;20049;-85
2021/08/15 06:14:16;;;;;;;12.55;5.55;;;17.80;99.90;;;;;;5050972;28;20075;-86
2021/08/15 06:16:41;;;;;;;;;;;17.90;99.90;;;;;;5052282;28;20440;-83
2021/08/15 06:19:07;;;;;;;10.07;5.60;;;18.00;99.90;;;;;;5050634;28;19925;-84
2021/08/15 06:21:33;;;;;;;12.38;6.07;;;18.00;99.90;;;;;;5033363;28;20041;-83
2021/08/15 06:23:59;;;;;;;15.32;5.72;;;18.10;99.90;;;;;;5033607;28;20493;-84
2021/08/15 06:26:25;;;;;;;9.65;5.40;;;18.20;99.90;;;;;;5066454;28;20056;-83
2021/08/15 06:28:53;;;;;;;13.98;5.60;;;18.20;99.90;;;;;;5017152;28;20124;-84
2021/08/15 06:31:19;;;;;;;13.50;5.38;;;18.30;99.90;;;;;;5032077;28;20120;-85
2021/08/15 06:33:45;;;;;;;10.40;5.40;;;18.40;99.90;;;;;;5033175;28;20396;-84
2021/08/15 06:36:11;;;;;;;7.65;5.25;;;18.40;99.90;;;;;;5066928;28;20041;-86
2021/08/15 06:38:37;;;;;;;12.80;5.90;;;18.30;99.90;;;;;;5016747;28;20064;-84
2021/08/15 06:41:03;;;;;;;13.77;5.75;;;18.40;99.90;;;;;;5050109;28;20045;-84
2021/08/15 06:43:28;;;;;;;8.38;5.25;;;18.50;99.90;;;;;;5065699;28;20416;-84
2021/08/15 06:45:55;;;;;;;11.18;5.63;;;18.60;99.90;;;;;;5025308;28;20056;-85
2021/08/15 06:48:22;;;;;;;12.07;6.10;;;18.60;99.90;;;;;;5050231;28;20079;-84
2021/08/15 06:50:53;;;;;;;10.93;5.93;;;18.60;99.90;;;;;;5033858;28;20063;-84
2021/08/15 06:53:20;;;;;;;10.05;5.78;;;18.70;99.90;;;;;;5065206;28;20052;-84
2021/08/15 06:55:46;;;;;;;9.80;5.60;;;18.80;99.90;;;;;;5033099;28;20041;-85
2021/08/15 06:58:12;;;;;;;8.82;5.32;;;18.90;99.90;;;;;;5050970;28;20037;-86
2021/08/15 07:00:37;;;;;;;7.78;5.63;;;18.90;99.90;;;;;;5032498;28;20048;-83
2021/08/15 07:03:03;;;;;;;11.75;5.32;;;18.80;99.90;;;;;;5066428;28;20049;-85
2021/08/15 07:05:29;;;;;;;10.02;5.75;;;18.90;99.90;;;;;;5065285;28;20072;-84
2021/08/15 07:07:55;;;;;;;8.40;5.40;;;18.90;99.90;;;;;;5066223;28;20481;-85
2021/08/15 07:10:21;;;;;;;13.45;5.78;;;19.10;99.90;;;;;;5031688;28;20598;-84
2021/08/15 07:12:52;;;;;;;10.10;5.88;;;19.30;99.90;;;;;;5030799;28;20049;-84
2021/08/15 07:15:19;;;;;;;11.57;5.47;;;19.40;99.90;;;;;;5029691;28;20039;-85
2021/08/15 07:17:45;;;;;;;12.13;5.18;;;19.60;99.90;;;;;;5050734;28;20037;-84
2021/08/15 07:20:12;;;;;;;9.75;5.70;;;19.70;99.90;;;;;;5050448;28;20055;-84
2021/08/15 07:22:37;;;;;;;12.40;6.18;;;19.90;99.90;;;;;;5032236;28;20063;-84
2021/08/15 07:25:05;;;;;;;14.68;5.47;;;20.00;99.90;;;;;;5016457;28;20053;-84
2021/08/15 07:27:31;;;;;;;12.25;5.18;;;20.10;99.90;;;;;;5049782;28;20503;-85
2021/08/15 07:29:58;;;;;;;9.77;5.50;;;20.20;99.90;;;;;;5050126;28;20052;-85
2021/08/15 07:32:23;;;;;;;8.68;5.22;;;20.30;99.90;;;;;;5030240;28;20041;-85
2021/08/15 07:34:50;;;;;;;7.68;4.45;;;20.40;99.90;;;;;;5048742;28;20068;-85
2021/08/15 07:37:15;;;;;;;9.95;5.15;;;20.60;99.90;;;;;;5028844;28;20041;-86
2021/08/15 07:39:41;;;;;;;9.95;4.60;;;20.70;99.90;;;;;;5031469;28;20064;-85
2021/08/15 07:42:07;;;;;;;7.30;4.40;;;20.80;99.90;;;;;;5049838;28;20036;-85
2021/08/15 07:44:33;;;;;;;7.90;4.32;;;20.80;99.90;;;;;;5053845;28;20396;-85
2021/08/15 07:46:59;;;;;;;11.02;4.50;;;20.90;99.90;;;;;;5058704;28;20056;-84
2021/08/15 07:49:25;;;;;;;8.60;4.53;;;21.00;99.90;;;;;;5041127;28;20488;-84
2021/08/15 07:51:50;;;;;;;8.85;4.43;;;21.00;99.90;;;;;;5039329;28;20505;-86
2021/08/15 07:54:16;;;;;;;9.50;4.35;;;20.90;99.90;;;;;;5064435;28;20127;-85
2021/08/15 07:56:42;;;;;;;7.50;5.00;;;21.00;99.90;;;;;;5042353;28;20042;-86
2021/08/15 07:59:10;;;;;;;7.85;4.28;;;21.10;99.90;;;;;;5015901;28;20427;-84
2021/08/15 08:01:36;;;;;;;9.05;4.13;;;21.20;99.90;;;;;;5063256;28;20045;-85
2021/08/15 08:04:02;;;;;;;11.35;4.32;;;21.40;99.90;;;;;;5031896;28;20049;-85
2021/08/15 08:06:28;;;;;;;8.90;4.30;;;21.40;99.90;;;;;;5030685;28;20063;-85
2021/08/15 08:08:54;;;;;;;10.07;4.18;;;21.50;99.90;;;;;;5048040;28;20049;-85
2021/08/15 08:11:20;;;;;;;11.55;4.63;;;21.60;99.90;;;;;;5044161;28;20389;-86
2021/08/15 08:13:47;;;;;;;8.90;3.75;;;21.70;99.90;;;;;;5049250;28;20432;-85
2021/08/15 08:16:14;;;;;;;10.18;4.57;;;21.80;99.90;;;;;;5049320;28;20033;-85
2021/08/15 08:18:40;;;;;;;9.52;3.95;;;21.90;99.90;;;;;;5032422;28;20178;-84
2021/08/15 08:21:07;;;;;;;11.65;4.13;;;21.80;99.90;;;;;;5048421;28;20037;-86
2021/08/15 08:23:34;;;;;;;8.85;3.90;;;21.80;99.90;;;;;;5062273;28;20132;-86
2021/08/15 08:26:00;;;;;;;7.28;3.92;;;21.80;99.90;;;;;;5063343;28;20474;-86
2021/08/15 08:28:26;;;;;;;11.95;4.55;;;21.80;99.90;;;;;;5048260;28;20045;-85
2021/08/15 08:30:52;;;;;;;9.15;4.40;;;21.70;99.90;;;;;;5049258;28;20048;-86
2021/08/15 08:33:18;;;;;;;13.20;4.50;;;21.60;99.90;;;;;;5057959;28;20519;-87
2021/08/15 08:35:44;;;;;;;11.55;4.80;;;21.60;99.90;;;;;;5057723;28;20557;-85
2021/08/15 08:38:10;;;;;;;9.23;4.15;;;21.60;99.90;;;;;;5063994;28;20037;-86
2021/08/15 08:40:36;;;;;;;11.65;3.95;;;21.60;99.90;;;;;;5063584;28;20043;-86
2021/08/15 08:43:02;;;;;;;7.20;4.20;;;21.80;99.90;;;;;;5031481;28;20057;-86
2021/08/15 08:45:29;;;;;;;8.88;3.63;;;21.90;99.90;;;;;;5046278;28;20064;-85
2021/08/15 08:47:55;;;;;;;8.45;3.50;;;21.90;99.90;;;;;;5046719;28;20055;-85
2021/08/15 08:50:22;;;;;;;13.70;3.65;;;21.90;99.90;;;;;;5014099;28;20115;-85
2021/08/15 08:52:48;;;;;;;8.80;3.80;;;21.80;99.90;;;;;;5042636;28;20053;-85
2021/08/15 08:55:16;;;;;;;8.60;3.15;;;21.80;99.90;;;;;;5047983;28;20071;-84
2021/08/15 08:57:42;;;;;;;10.35;3.17;;;21.80;99.90;;;;;;5030345;28;20045;-84
2021/08/15 09:00:08;;;;;;;9.18;3.97;;;21.90;99.90;;;;;;5048609;28;20131;-84
2021/08/15 09:02:38;;;;;;;7.55;3.35;;;21.80;99.90;;;;;;5030004;28;20060;-84
2021/08/15 09:05:04;;;;;;;;;;;21.80;99.90;;;;;;5049124;28;20041;-84
2021/08/15 09:07:35;;;;;;;6.65;3.58;;;21.90;99.90;;;;;;5029425;28;19925;-83
2021/08/15 09:10:02;;;;;;;6.72;3.55;;;21.70;99.90;;;;;;5038367;28;20045;-85
2021/08/15 09:12:34;;;;;;;9.73;3.88;;;21.80;99.90;;;;;;5040339;28;20040;-84
2021/08/15 09:15:20;;;;;;;7.97;3.83;;;21.80;99.90;;;;;;5048819;28;20037;-84
2021/08/15 09:17:50;;;;;;;7.45;3.42;;;21.80;99.90;;;;;;5026148;28;20040;-85
2021/08/15 09:20:32;;;;;;;14.55;4.55;;;21.90;99.90;;;;;;5048046;28;20378;-84
2021/08/15 09:22:58;;;;;;;9.35;4.22;;;22.00;99.90;;;;;;5063079;28;20159;-84
2021/08/15 09:25:24;;;;;;;12.63;4.72;;;22.00;99.90;;;;;;5064023;28;20049;-84
2021/08/15 09:27:55;;;;;;;7.20;3.55;;;22.20;99.90;;;;;;5048043;28;20659;-84
2021/08/15 09:30:25;;;;;;;8.02;3.25;;;22.30;99.90;;;;;;5063490;28;20037;-83
2021/08/15 09:33:19;;;;;;;7.82;3.45;;;22.40;99.90;;;;;;5030141;28;20049;-85
2021/08/15 09:35:49;;;;;;;9.73;3.88;;;22.40;99.90;;;;;;5047236;28;20072;-85
2021/08/15 09:38:17;;;;;;;8.18;3.95;;;22.40;99.90;;;;;;5047590;28;20049;-85
2021/08/15 09:40:52;;;;;;;7.78;4.07;;;22.40;99.90;;;;;;5047050;28;20049;-84
2021/08/15 09:43:23;;;;;;;11.40;4.45;;;22.40;99.90;;;;;;5030098;28;20048;-84
2021/08/15 09:45:54;;;;;;;10.13;3.97;;;22.40;99.90;;;;;;5041756;28;20131;-85
2021/08/15 09:48:24;;;;;;;8.40;3.65;;;22.40;99.90;;;;;;5025175;28;20060;-84
2021/08/15 09:51:14;;;;;;;8.30;4.30;;;22.40;99.90;;;;;;5038104;28;20909;-85
2021/08/15 09:54:00;;;;;;;9.57;4.32;;;22.50;99.90;;;;;;5062496;28;20047;-83
2021/08/15 09:56:31;;;;;;;8.13;4.15;;;22.50;99.90;;;;;;5030345;28;20052;-83
2021/08/15 09:59:16;;;;;;;13.30;4.97;;;22.50;99.90;;;;;;5047200;28;20568;-84
2021/08/15 10:01:43;;;;;;;9.75;4.22;;;22.60;99.90;;;;;;5045446;28;20037;-86
2021/08/15 10:04:10;;;;;;;8.35;4.00;;;22.70;99.90;;;;;;5047528;28;20041;-85
2021/08/15 10:06:38;;;;;;;8.52;4.00;;;22.70;99.90;;;;;;5028826;28;20036;-86
2021/08/15 10:09:05;;;;;;;14.18;4.60;;;22.80;99.90;;;;;;5037503;28;20037;-85
2021/08/15 10:11:32;;;;;;;7.63;3.88;;;22.80;99.90;;;;;;5050530;28;20041;-86
2021/08/15 10:13:59;;;;;;;9.50;4.20;;;22.90;99.90;;;;;;5066136;28;20048;-84
2021/08/15 10:16:33;;;;;;;8.18;4.05;;;22.90;99.90;;;;;;5049778;28;20041;-84
2021/08/15 10:19:03;;;;;;;9.43;4.20;;;23.00;99.90;;;;;;5048668;28;20048;-86
2021/08/15 10:21:29;;;;;;;9.63;4.10;;;23.10;99.90;;;;;;5046535;28;20045;-85
2021/08/15 10:24:09;;;;;;;6.95;3.90;;;23.10;99.90;;;;;;5024274;28;20055;-85
2021/08/15 10:26:39;;;;;;;;;;;23.10;99.90;;;;;;5048847;28;20059;-85
2021/08/15 10:29:39;;;;;;;12.43;4.25;;;23.20;99.90;;;;;;5051354;28;19925;-85
2021/08/15 10:32:10;;;;;;;10.98;4.65;;;23.10;99.90;;;;;;5030207;28;20045;-84
2021/08/15 10:34:51;;;;;;;8.63;4.05;;;23.10;99.90;;;;;;5032434;28;20155;-84
2021/08/15 10:37:33;;;;;;;8.70;4.20;;;23.20;99.90;;;;;;5050215;28;20049;-86
2021/08/15 10:40:03;;;;;;;6.47;3.88;;;23.40;99.90;;;;;;5042618;28;20045;-87
2021/08/15 10:42:38;;;;;;;7.10;3.75;;;23.50;99.90;;;;;;5035065;28;20040;-84
2021/08/15 10:45:13;;;;;;;8.90;4.30;;;23.70;99.90;;;;;;5050710;28;20080;-85
2021/08/15 10:47:39;;;;;;;8.52;4.35;;;23.80;99.90;;;;;;5048920;28;20055;-85
2021/08/15 10:50:07;;;;;;;10.07;4.20;;;24.00;99.90;;;;;;5066099;28;20033;-84
2021/08/15 10:52:40;;;;;;;5.28;3.63;;;24.20;99.90;;;;;;5029428;28;20071;-86
2021/08/15 10:55:19;;;;;;;7.45;4.50;;;24.30;99.90;;;;;;5030030;28;20452;-85
2021/08/15 10:57:53;;;;;;;9.30;4.47;;;24.50;99.90;;;;;;5049036;28;20144;-84
2021/08/15 11:00:34;;;;;;;7.78;4.40;;;24.70;99.90;;;;;;5033065;28;20044;-84
2021/08/15 11:03:22;;;;;;;6.65;3.38;;;24.90;99.90;;;;;;5049351;28;20123;-84
2021/08/15 11:05:49;;;;;;;7.93;4.18;;;24.90;99.90;;;;;;5031733;28;20041;-85
2021/08/15 11:08:33;;;;;;;8.63;3.60;;;24.90;99.90;;;;;;5030749;28;20444;-85
2021/08/15 11:11:15;;;;;;;8.05;3.78;;;25.00;99.90;;;;;;5051314;28;20080;-85
2021/08/15 11:13:41;;;;;;;7.85;3.60;;;25.10;99.90;;;;;;5049736;28;20617;-85
2021/08/15 11:16:25;;;;;;;7.35;3.30;;;25.20;99.90;;;;;;5048054;28;20049;-85
2021/08/15 11:19:24;;;;;;;5.40;3.30;;;25.20;99.90;;;;;;5047644;28;20503;-85
2021/08/15 11:22:02;;;;;;;11.27;3.95;;;25.00;99.90;;;;;;4999764;28;20064;-84
2021/08/15 11:24:44;;;;;;;14.18;4.10;;;25.10;99.90;;;;;;5050297;28;20473;-85
2021/08/15 11:27:19;;;;;;;7.53;3.33;;;25.30;99.90;;;;;;5048329;28;20048;-85
2021/08/15 11:29:46;;;;;;;6.90;3.60;;;25.40;99.90;;;;;;5049085;28;20492;-85
2021/08/15 11:32:16;;;;;;;8.02;3.40;;;25.50;99.90;;;;;;5029251;28;20054;-84
2021/08/15 11:34:58;;;;;;;7.40;3.88;;;25.80;99.90;;;;;;5046945;28;20544;-85
2021/08/15 11:37:27;;;;;;;11.48;3.90;;;26.00;99.90;;;;;;5050002;28;20041;-85
2021/08/15 11:39:53;;;;;;;5.90;3.50;;;26.10;99.90;;;;;;5049309;28;20048;-85
2021/08/15 11:42:24;;;;;;;5.00;3.45;;;26.20;99.90;;;;;;5048840;28;20083;-85
2021/08/15 11:44:58;;;;;;;8.32;4.05;;;26.30;99.40;;;;;;5049354;28;20041;-85
2021/08/15 11:47:33;;;;;;;16.38;4.10;;;26.40;98.90;;;;;;5030678;28;20072;-85
2021/08/15 11:50:11;;;;;;;8.18;3.53;;;26.50;98.40;;;;;;5035444;28;20051;-84
2021/08/15 11:52:37;;;;;;;10.98;3.78;;;26.60;97.40;;;;;;5026646;28;20033;-85
2021/08/15 11:55:17;;;;;;;8.45;3.53;;;26.50;97.70;;;;;;5046839;28;20049;-85
2021/08/15 11:57:45;;;;;;;8.88;3.58;;;26.80;98.10;;;;;;5048364;28;20041;-86
2021/08/15 12:00:12;;;;;;;10.95;3.47;;;26.80;96.20;;;;;;5049762;28;20080;-85
2021/08/15 12:02:37;;;;;;;11.95;3.70;;;26.90;97.80;;;;;;5031646;28;20045;-85
2021/08/15 12:05:04;;;;;;;5.55;3.22;;;27.10;96.00;;;;;;5031339;28;20051;-84
2021/08/15 12:07:30;;;;;;;6.50;3.78;;;27.10;96.40;;;;;;5049321;28;20072;-87
2021/08/15 12:10:41;;;;;;;11.18;4.05;;;27.30;96.80;;;;;;5038789;28;20493;-85
2021/08/15 12:13:12;;;;;;;7.10;3.80;;;27.40;96.30;;;;;;5029676;28;20041;-85
2021/08/15 12:15:40;;;;;;;12.20;3.67;;;27.40;96.50;;;;;;5047799;28;20045;-85
2021/08/15 12:18:06;;;;;;;9.60;4.00;;;27.50;96.90;;;;;;5013895;28;20477;-84
2021/08/15 12:20:42;;;;;;;9.82;3.90;;;27.60;95.40;;;;;;5049000;28;20045;-84
2021/08/15 12:23:08;;;;;;;7.05;3.47;;;27.60;95.00;;;;;;5047005;28;20051;-85
2021/08/15 12:25:34;;;;;;;5.82;3.20;;;27.80;94.70;;;;;;5048905;28;20120;-85
2021/08/15 12:28:30;;;;;;;5.75;3.03;;;27.80;93.60;;;;;;5048271;28;20442;-84
2021/08/15 12:30:56;;;;;;;7.78;3.38;;;28.00;93.20;;;;;;5029040;28;20081;-85
2021/08/15 12:33:33;;;;;;;8.27;3.55;;;28.10;92.70;;;;;;5030484;28;20086;-85
2021/08/15 12:36:19;;;;;;;4.80;2.83;;;28.30;93.30;;;;;;5030771;28;20080;-85
2021/08/15 12:38:46;;;;;;;6.78;3.20;;;28.60;94.10;;;;;;5059066;28;20127;-86
2021/08/15 12:41:29;;;;;;;4.85;3.13;;;28.70;93.00;;;;;;5031316;28;20451;-85
2021/08/15 12:44:10;;;;;;;8.40;3.35;;;28.90;91.70;;;;;;5026239;28;20524;-86
2021/08/15 12:46:36;;;;;;;13.38;3.60;;;29.00;91.30;;;;;;5030852;28;20044;-85
2021/08/15 12:49:23;;;;;;;4.40;3.17;;;29.00;91.30;;;;;;5062751;28;20049;-84
2021/08/15 12:52:07;;;;;;;10.57;3.47;;;29.10;91.20;;;;;;5047147;28;20099;-87